createdAt,value
2017-11-23T00:01:57.327Z,8.18
2017-11-23T00:04:24.712Z,8.22
2017-11-23T00:06:52.136Z,8.29
2017-11-23T00:09:19.592Z,8.08
2017-11-23T00:11:47.048Z,7.97
2017-11-23T00:14:14.428Z,7.84
2017-11-23T00:16:41.812Z,7.83
2017-11-23T00:19:09.225Z,7.77
2017-11-23T00:21:36.667Z,7.90
2017-11-23T00:24:04.056Z,7.96
2017-11-23T00:26:31.447Z,7.75
2017-11-23T00:28:58.833Z,7.83
2017-11-23T00:31:26.292Z,7.68
2017-11-23T00:33:53.673Z,7.72
2017-11-23T00:36:21.099Z,7.85
2017-11-23T00:38:48.556Z,7.66
2017-11-23T00:41:15.941Z,7.61
2017-11-23T00:43:43.320Z,7.84
2017-11-23T00:46:10.698Z,7.79
2017-11-23T00:48:38.088Z,7.78
2017-11-23T00:51:05.472Z,7.75
2017-11-23T00:53:32.863Z,7.70
2017-11-23T00:56:00.356Z,7.72
2017-11-23T00:58:27.740Z,7.66
2017-11-23T01:00:55.119Z,7.64
2017-11-23T01:03:22.508Z,7.67
2017-11-23T01:05:49.919Z,7.69
2017-11-23T01:08:17.303Z,7.61
2017-11-23T01:10:44.675Z,7.74
2017-11-23T01:13:12.129Z,7.61
2017-11-23T01:15:39.585Z,7.70
2017-11-23T01:18:06.974Z,7.70
2017-11-23T01:20:34.353Z,7.78
2017-11-23T01:23:01.746Z,7.90
2017-11-23T01:25:29.137Z,7.93
2017-11-23T01:27:56.526Z,7.90
2017-11-23T01:30:24.019Z,7.78
2017-11-23T01:32:51.474Z,7.81
2017-11-23T01:35:18.847Z,7.74
2017-11-23T01:37:46.223Z,7.59
2017-11-23T01:40:13.604Z,7.44
2017-11-23T01:42:40.991Z,7.50
2017-11-23T01:45:08.447Z,7.46
2017-11-23T01:47:35.903Z,7.48
2017-11-23T01:50:03.361Z,7.61
2017-11-23T01:52:30.743Z,7.65
2017-11-23T01:54:58.174Z,7.64
2017-11-23T01:57:25.631Z,7.68
2017-11-23T01:59:53.020Z,7.76
2017-11-23T02:02:20.399Z,7.73
2017-11-23T02:04:47.786Z,7.88
2017-11-23T02:07:15.168Z,7.88
2017-11-23T02:09:42.556Z,7.85
2017-11-23T02:12:09.923Z,7.93
2017-11-23T02:14:37.312Z,7.97
2017-11-23T02:17:04.692Z,7.98
2017-11-23T02:19:32.068Z,7.90
2017-11-23T02:21:59.443Z,8.05
2017-11-23T02:24:26.827Z,7.90
2017-11-23T02:26:54.208Z,7.76
2017-11-23T02:29:21.592Z,7.68
2017-11-23T02:31:48.959Z,7.60
2017-11-23T02:34:16.414Z,7.66
2017-11-23T02:36:43.797Z,7.69
2017-11-23T02:39:11.210Z,7.70
2017-11-23T02:41:38.657Z,7.60
2017-11-23T02:44:06.060Z,7.37
2017-11-23T02:46:33.490Z,7.49
2017-11-23T02:49:00.940Z,7.54
2017-11-23T02:51:28.389Z,7.64
2017-11-23T02:53:55.834Z,7.63
2017-11-23T02:56:23.221Z,7.73
2017-11-23T02:58:50.598Z,7.78
2017-11-23T03:01:17.989Z,7.66
2017-11-23T03:03:45.372Z,7.81
2017-11-23T03:06:12.759Z,7.72
2017-11-23T03:08:40.159Z,7.72
2017-11-23T03:11:07.549Z,7.83
2017-11-23T03:13:34.980Z,7.96
2017-11-23T03:16:02.438Z,8.06
2017-11-23T03:18:29.895Z,8.21
2017-11-23T03:20:57.349Z,8.27
2017-11-23T03:23:24.723Z,8.29
2017-11-23T03:25:52.162Z,8.26
2017-11-23T03:28:19.536Z,8.34
2017-11-23T03:30:46.940Z,8.21
2017-11-23T03:33:14.327Z,8.28
2017-11-23T03:35:41.777Z,8.19
2017-11-23T03:38:09.236Z,7.94
2017-11-23T03:40:36.692Z,7.88
2017-11-23T03:43:04.068Z,7.85
2017-11-23T03:45:31.452Z,7.82
2017-11-23T03:47:58.840Z,7.77
2017-11-23T03:50:26.217Z,7.99
2017-11-23T03:52:53.594Z,8.06
2017-11-23T03:55:20.971Z,7.98
2017-11-23T03:57:48.361Z,7.91
2017-11-23T04:00:15.743Z,7.90
2017-11-23T04:02:43.184Z,8.00
2017-11-23T04:05:10.555Z,8.07
2017-11-23T04:07:37.964Z,8.20
2017-11-23T04:10:05.447Z,8.06
2017-11-23T04:12:32.847Z,8.10
2017-11-23T04:15:00.227Z,8.14
2017-11-23T04:17:27.621Z,8.19
2017-11-23T04:19:55.080Z,8.28
2017-11-23T04:22:22.468Z,8.27
2017-11-23T04:24:49.856Z,8.33
2017-11-23T04:27:17.239Z,8.42
2017-11-23T04:29:44.692Z,8.34
2017-11-23T04:32:12.067Z,8.42
2017-11-23T04:34:39.503Z,8.52
2017-11-23T04:37:06.886Z,8.62
2017-11-23T04:39:34.287Z,8.53
2017-11-23T04:42:01.659Z,8.52
2017-11-23T04:44:29.050Z,8.46
2017-11-23T04:46:56.471Z,8.54
2017-11-23T04:49:23.871Z,8.63
2017-11-23T04:51:51.287Z,8.84
2017-11-23T04:54:18.671Z,8.81
2017-11-23T04:56:46.100Z,8.90
2017-11-23T04:59:13.558Z,8.86
2017-11-23T05:01:40.935Z,8.80
2017-11-23T05:04:08.360Z,8.78
2017-11-23T05:06:35.743Z,8.69
2017-11-23T05:09:03.140Z,8.78
2017-11-23T05:11:30.523Z,8.80
2017-11-23T05:13:57.983Z,8.90
2017-11-23T05:16:25.371Z,8.76
2017-11-23T05:18:52.747Z,8.85
2017-11-23T05:21:20.147Z,8.84
2017-11-23T05:23:47.604Z,8.85
2017-11-23T05:26:14.992Z,8.83
2017-11-23T05:28:42.416Z,8.92
2017-11-23T05:31:09.805Z,9.02
2017-11-23T05:33:37.188Z,9.03
2017-11-23T05:36:04.570Z,8.96
2017-11-23T05:38:31.951Z,9.04
2017-11-23T05:40:59.344Z,9.03
2017-11-23T05:43:26.724Z,8.97
2017-11-23T05:45:54.116Z,9.08
2017-11-23T05:48:21.507Z,9.09
2017-11-23T05:50:48.887Z,9.18
2017-11-23T05:53:16.364Z,9.31
2017-11-23T05:55:43.747Z,9.28
2017-11-23T05:58:11.131Z,9.27
2017-11-23T06:00:38.533Z,9.34
2017-11-23T06:03:05.992Z,9.41
2017-11-23T06:05:33.420Z,9.36
2017-11-23T06:08:00.897Z,9.44
2017-11-23T06:10:28.272Z,9.52
2017-11-23T06:12:55.709Z,9.65
2017-11-23T06:15:23.084Z,9.64
2017-11-23T06:17:50.471Z,9.67
2017-11-23T06:20:17.857Z,9.78
2017-11-23T06:22:45.246Z,9.85
2017-11-23T06:25:12.621Z,9.74
2017-11-23T06:27:40.019Z,9.76
2017-11-23T06:30:07.406Z,9.75
2017-11-23T06:32:34.851Z,9.79
2017-11-23T06:35:02.323Z,9.63
2017-11-23T06:37:29.691Z,9.63
2017-11-23T06:39:57.080Z,9.57
2017-11-23T06:42:24.567Z,9.57
2017-11-23T06:44:51.943Z,9.64
2017-11-23T06:47:19.327Z,9.55
2017-11-23T06:49:46.735Z,9.55
2017-11-23T06:52:14.123Z,9.59
2017-11-23T06:54:41.547Z,9.69
2017-11-23T06:57:08.968Z,9.76
2017-11-23T06:59:36.459Z,9.74
2017-11-23T07:02:03.916Z,9.78
2017-11-23T07:04:31.292Z,9.77
2017-11-23T07:06:58.671Z,9.79
2017-11-23T07:09:26.068Z,9.91
2017-11-23T07:11:53.466Z,9.96
2017-11-23T07:14:20.840Z,10.02
2017-11-23T07:16:48.249Z,10.00
2017-11-23T07:19:15.640Z,10.08
2017-11-23T07:21:43.028Z,10.02
2017-11-23T07:24:10.434Z,10.10
2017-11-23T07:26:37.803Z,10.14
2017-11-23T07:29:05.227Z,10.04
2017-11-23T07:31:32.607Z,10.05
2017-11-23T07:34:00.041Z,10.16
2017-11-23T07:36:27.517Z,10.13
2017-11-23T07:38:54.934Z,10.22
2017-11-23T07:41:22.316Z,10.20
2017-11-23T07:43:49.708Z,10.17
2017-11-23T07:46:17.108Z,10.22
2017-11-23T07:48:44.507Z,10.25
2017-11-23T07:51:11.920Z,10.27
2017-11-23T07:53:39.373Z,10.26
2017-11-23T07:56:06.756Z,10.30
2017-11-23T07:58:34.135Z,10.34
2017-11-23T08:01:01.519Z,10.46
2017-11-23T08:03:28.934Z,10.46
2017-11-23T08:05:56.343Z,10.58
2017-11-23T08:08:24.383Z,10.59
2017-11-23T08:10:51.764Z,10.65
2017-11-23T08:13:19.176Z,10.64
2017-11-23T08:15:46.565Z,10.74
2017-11-23T08:18:13.939Z,10.78
2017-11-23T08:20:41.412Z,10.79
2017-11-23T08:23:08.797Z,10.77
2017-11-23T08:25:36.208Z,10.77
2017-11-23T08:28:03.608Z,10.79
2017-11-23T08:30:30.997Z,10.84
2017-11-23T08:32:58.481Z,10.92
2017-11-23T08:35:25.880Z,10.93
2017-11-23T08:37:53.307Z,11.03
2017-11-23T08:40:20.725Z,11.08
2017-11-23T08:42:48.210Z,11.16
2017-11-23T08:45:15.585Z,11.18
2017-11-23T08:47:43.012Z,11.19
2017-11-23T08:50:10.404Z,11.21
2017-11-23T08:52:37.792Z,11.15
2017-11-23T08:55:05.183Z,11.22
2017-11-23T08:57:32.564Z,11.28
2017-11-23T08:59:59.955Z,11.35
2017-11-23T09:02:27.445Z,11.40
2017-11-23T09:04:54.895Z,11.49
2017-11-23T09:07:22.273Z,11.46
2017-11-23T09:09:49.656Z,11.51
2017-11-23T09:12:17.097Z,11.42
2017-11-23T09:14:44.520Z,11.48
2017-11-23T09:17:11.986Z,11.59
2017-11-23T09:19:39.379Z,11.62
2017-11-23T09:22:06.795Z,11.61
2017-11-23T09:24:34.189Z,11.69
2017-11-23T09:27:01.618Z,11.77
2017-11-23T09:29:28.995Z,11.94
2017-11-23T09:31:56.412Z,12.13
2017-11-23T09:34:23.864Z,12.63
2017-11-23T09:36:51.248Z,13.13
2017-11-23T09:39:18.661Z,13.74
2017-11-23T09:41:46.030Z,14.51
2017-11-23T09:44:13.421Z,15.30
2017-11-23T09:46:40.840Z,15.66
2017-11-23T09:49:08.228Z,15.67
2017-11-23T09:51:35.615Z,16.06
2017-11-23T09:54:03.123Z,16.50
2017-11-23T09:56:30.500Z,16.64
2017-11-23T09:58:57.883Z,16.48
2017-11-23T10:01:25.272Z,16.77
2017-11-23T10:03:52.662Z,17.01
2017-11-23T10:06:20.053Z,16.60
2017-11-23T10:08:47.446Z,16.57
2017-11-23T10:11:14.825Z,16.45
2017-11-23T10:13:42.250Z,16.83
2017-11-23T10:16:09.645Z,16.84
2017-11-23T10:18:37.060Z,17.07
2017-11-23T10:21:04.443Z,17.52
2017-11-23T10:23:31.867Z,17.38
2017-11-23T10:25:59.260Z,17.55
2017-11-23T10:28:26.650Z,17.65
2017-11-23T10:30:54.039Z,17.31
2017-11-23T10:33:21.494Z,17.50
2017-11-23T10:35:48.884Z,17.31
2017-11-23T10:38:16.304Z,17.21
2017-11-23T10:40:43.687Z,17.40
2017-11-23T10:43:11.067Z,17.16
2017-11-23T10:45:38.455Z,17.34
2017-11-23T10:48:05.847Z,17.33
2017-11-23T10:50:33.240Z,17.33
2017-11-23T10:53:00.631Z,16.79
2017-11-23T10:55:28.012Z,16.35
2017-11-23T10:57:55.399Z,15.88
2017-11-23T11:00:22.904Z,15.76
2017-11-23T11:02:50.292Z,15.68
2017-11-23T11:05:17.678Z,15.38
2017-11-23T11:07:45.068Z,15.34
2017-11-23T11:10:12.547Z,15.11
2017-11-23T11:12:39.950Z,15.13
2017-11-23T11:15:07.345Z,15.24
2017-11-23T11:17:34.737Z,15.29
2017-11-23T11:20:02.120Z,15.36
2017-11-23T11:22:29.603Z,15.66
2017-11-23T11:24:56.989Z,15.68
2017-11-23T11:27:24.375Z,15.58
2017-11-23T11:29:51.764Z,15.66
2017-11-23T11:32:19.228Z,15.57
2017-11-23T11:34:46.679Z,15.64
2017-11-23T11:37:14.073Z,15.51
2017-11-23T11:39:41.459Z,15.33
2017-11-23T11:42:08.851Z,15.29
2017-11-23T11:44:36.239Z,15.36
2017-11-23T11:47:03.632Z,15.28
2017-11-23T11:49:31.084Z,15.11
2017-11-23T11:51:58.468Z,15.18
2017-11-23T11:54:25.932Z,15.14
2017-11-23T11:56:53.379Z,15.11
2017-11-23T11:59:20.769Z,15.04
2017-11-23T12:01:48.162Z,14.89
2017-11-23T12:04:15.540Z,14.84
2017-11-23T12:06:42.937Z,14.90
2017-11-23T12:09:10.360Z,14.82
2017-11-23T12:11:37.817Z,14.99
2017-11-23T12:14:17.060Z,15.01
2017-11-23T12:20:01.320Z,14.97
2017-11-23T12:25:52.376Z,14.90
2017-11-23T12:28:31.783Z,14.84
2017-11-23T12:30:59.164Z,14.75
2017-11-23T12:33:26.558Z,14.57
2017-11-23T12:35:53.936Z,14.37
2017-11-23T12:38:21.331Z,14.46
2017-11-23T12:40:48.729Z,14.48
2017-11-23T12:43:16.106Z,14.54
2017-11-23T12:45:43.492Z,14.53
2017-11-23T12:48:10.929Z,14.47
2017-11-23T12:50:38.320Z,14.48
2017-11-23T12:53:05.739Z,14.52
2017-11-23T12:55:33.195Z,14.42
2017-11-23T12:58:00.664Z,14.46
2017-11-23T13:00:28.052Z,14.46
2017-11-23T13:02:55.439Z,14.42
2017-11-23T13:05:22.824Z,14.43
2017-11-23T13:07:50.283Z,14.38
2017-11-23T13:10:17.671Z,14.40
2017-11-23T13:12:45.052Z,14.33
2017-11-23T13:15:12.467Z,14.28
2017-11-23T13:17:39.924Z,14.29
2017-11-23T13:20:07.355Z,14.25
2017-11-23T13:22:34.737Z,14.21
2017-11-23T13:25:02.128Z,14.17
2017-11-23T13:27:29.507Z,14.16
2017-11-23T13:29:56.892Z,14.10
2017-11-23T13:32:24.280Z,14.04
2017-11-23T13:34:51.693Z,13.99
2017-11-23T13:37:19.080Z,13.95
2017-11-23T13:39:46.471Z,13.98
2017-11-23T13:42:13.851Z,14.09
2017-11-23T13:44:41.251Z,13.93
2017-11-23T13:47:08.634Z,13.98
2017-11-23T13:49:36.015Z,14.13
2017-11-23T13:52:03.409Z,14.09
2017-11-23T13:54:30.803Z,14.18
2017-11-23T13:56:58.180Z,14.23
2017-11-23T13:59:25.571Z,14.19
2017-11-23T14:01:52.950Z,14.31
2017-11-23T14:04:20.340Z,14.43
2017-11-23T14:06:47.812Z,14.41
2017-11-23T14:09:15.206Z,14.48
2017-11-23T14:11:42.590Z,14.45
2017-11-23T14:14:09.977Z,14.44
2017-11-23T14:16:37.380Z,14.56
2017-11-23T14:19:04.788Z,14.48
2017-11-23T14:21:32.248Z,14.46
2017-11-23T14:23:59.699Z,14.54
2017-11-23T14:26:27.091Z,14.51
2017-11-23T14:28:54.482Z,14.57
2017-11-23T14:31:21.887Z,14.59
2017-11-23T14:33:49.256Z,14.52
2017-11-23T14:36:16.670Z,14.67
2017-11-23T14:38:44.127Z,14.64
2017-11-23T14:41:11.584Z,14.63
2017-11-23T14:43:38.970Z,14.74
2017-11-23T14:46:06.343Z,14.71
2017-11-23T14:48:33.728Z,14.66
2017-11-23T14:51:01.143Z,14.73
2017-11-23T14:53:28.541Z,14.71
2017-11-23T14:55:55.923Z,14.73
2017-11-23T14:58:23.311Z,14.64
2017-11-23T15:00:50.688Z,14.75
2017-11-23T15:03:18.122Z,14.75
2017-11-23T15:05:45.572Z,14.77
2017-11-23T15:08:12.953Z,14.67
2017-11-23T15:10:40.339Z,14.76
2017-11-23T15:13:07.723Z,14.77
2017-11-23T15:15:35.119Z,14.74
2017-11-23T15:18:02.547Z,14.66
2017-11-23T15:20:29.927Z,14.76
2017-11-23T15:22:57.315Z,14.73
2017-11-23T15:25:24.700Z,14.66
2017-11-23T15:27:52.092Z,14.73
2017-11-23T15:30:19.481Z,14.70
2017-11-23T15:32:46.874Z,14.75
2017-11-23T15:35:14.345Z,14.80
2017-11-23T15:37:41.736Z,14.80
2017-11-23T15:40:09.154Z,14.67
2017-11-23T15:42:36.607Z,14.76
2017-11-23T15:45:04.068Z,14.67
2017-11-23T15:47:31.455Z,14.67
2017-11-23T15:49:58.848Z,14.67
2017-11-23T15:52:26.336Z,14.69
2017-11-23T15:54:53.724Z,14.66
2017-11-23T15:57:21.117Z,14.54
2017-11-23T15:59:48.600Z,14.51
2017-11-23T16:02:16.065Z,14.59
2017-11-23T16:04:43.447Z,14.53
2017-11-23T16:07:10.848Z,14.61
2017-11-23T16:09:38.224Z,14.57
2017-11-23T16:12:05.686Z,14.59
2017-11-23T16:14:33.158Z,14.63
2017-11-23T16:17:00.544Z,14.53
2017-11-23T16:19:27.923Z,14.52
2017-11-23T16:21:55.328Z,14.44
2017-11-23T16:24:22.700Z,14.51
2017-11-23T16:26:50.117Z,14.53
2017-11-23T16:29:17.503Z,14.56
2017-11-23T16:31:44.882Z,14.59
2017-11-23T16:34:12.285Z,14.56
2017-11-23T16:36:43.654Z,14.59
2017-11-23T16:39:13.569Z,14.48
2017-11-23T16:41:46.692Z,14.48
2017-11-23T16:44:19.591Z,14.41
2017-11-23T16:46:52.690Z,14.19
2017-11-23T16:49:25.569Z,13.77
2017-11-23T16:51:58.441Z,13.62
2017-11-23T16:54:31.568Z,13.44
2017-11-23T16:57:04.657Z,13.38
2017-11-23T16:59:32.807Z,13.33
2017-11-23T17:02:05.820Z,13.18
2017-11-23T17:04:40.596Z,13.17
2017-11-23T17:07:07.983Z,13.03
2017-11-23T17:09:35.376Z,13.02
2017-11-23T17:12:08.392Z,12.93
2017-11-23T17:14:41.300Z,12.94
2017-11-23T17:17:25.448Z,12.94
2017-11-23T17:19:52.950Z,13.06
2017-11-23T17:22:20.393Z,13.01
2017-11-23T17:24:47.849Z,13.06
2017-11-23T17:27:15.227Z,13.16
2017-11-23T17:29:42.770Z,13.17
2017-11-23T17:32:10.142Z,13.15
2017-11-23T17:34:37.540Z,13.09
2017-11-23T17:37:04.926Z,13.19
2017-11-23T17:39:32.383Z,13.25
2017-11-23T17:41:59.768Z,13.14
2017-11-23T17:44:27.170Z,13.43
2017-11-23T17:46:54.647Z,13.48
2017-11-23T17:49:22.051Z,13.46
2017-11-23T17:51:49.525Z,13.53
2017-11-23T17:54:16.911Z,13.46
2017-11-23T17:56:44.304Z,13.32
2017-11-23T17:59:11.723Z,13.15
2017-11-23T18:01:39.126Z,13.04
2017-11-23T18:04:06.512Z,13.05
2017-11-23T18:06:33.995Z,13.02
2017-11-23T18:09:01.379Z,12.88
2017-11-23T18:11:28.782Z,12.74
2017-11-23T18:13:56.160Z,12.67
2017-11-23T18:16:23.550Z,12.76
2017-11-23T18:18:50.971Z,12.74
2017-11-23T18:21:18.356Z,12.64
2017-11-23T18:23:45.745Z,12.61
2017-11-23T18:26:13.137Z,12.50
2017-11-23T18:28:40.521Z,12.32
2017-11-23T18:31:07.948Z,12.26
2017-11-23T18:33:35.335Z,12.23
2017-11-23T18:36:02.761Z,12.27
2017-11-23T18:38:30.156Z,12.13
2017-11-23T18:40:57.560Z,12.08
2017-11-23T18:43:24.944Z,12.03
2017-11-23T18:45:52.331Z,11.99
2017-11-23T18:48:19.741Z,11.88
2017-11-23T18:50:47.159Z,11.87
2017-11-23T18:53:14.547Z,11.85
2017-11-23T18:55:42.000Z,11.83
2017-11-23T18:58:09.462Z,11.74
2017-11-23T19:00:36.852Z,11.80
2017-11-23T19:03:04.243Z,11.85
2017-11-23T19:05:31.620Z,12.02
2017-11-23T19:07:59.080Z,12.01
2017-11-23T19:10:26.466Z,11.95
2017-11-23T19:12:53.864Z,12.13
2017-11-23T19:15:21.242Z,12.19
2017-11-23T19:17:48.632Z,12.24
2017-11-23T19:20:16.064Z,12.00
2017-11-23T19:22:43.452Z,11.97
2017-11-23T19:25:10.835Z,12.03
2017-11-23T19:27:38.228Z,11.85
2017-11-23T19:30:05.622Z,11.94
2017-11-23T19:32:33.063Z,11.89
2017-11-23T19:35:00.497Z,11.67
2017-11-23T19:37:27.903Z,11.55
2017-11-23T19:39:55.283Z,11.30
2017-11-23T19:42:22.675Z,11.23
2017-11-23T19:44:50.104Z,11.22
2017-11-23T19:47:17.522Z,11.25
2017-11-23T19:49:44.915Z,10.96
2017-11-23T19:52:12.307Z,11.02
2017-11-23T19:54:39.699Z,10.90
2017-11-23T19:57:07.190Z,10.57
2017-11-23T19:59:34.686Z,10.58
2017-11-23T20:02:02.083Z,10.46
2017-11-23T20:04:29.552Z,10.32
2017-11-23T20:06:56.941Z,10.31
2017-11-23T20:09:24.329Z,10.25
2017-11-23T20:11:51.735Z,10.25
2017-11-23T20:14:19.120Z,10.03
2017-11-23T20:16:46.499Z,9.96
2017-11-23T20:19:13.918Z,9.88
2017-11-23T20:21:41.291Z,9.93
2017-11-23T20:24:08.699Z,9.93
2017-11-23T20:26:36.128Z,9.91
2017-11-23T20:29:03.572Z,9.87
2017-11-23T20:31:30.959Z,9.88
2017-11-23T20:33:58.344Z,9.77
2017-11-23T20:36:25.744Z,9.78
2017-11-23T20:38:53.131Z,9.74
2017-11-23T20:41:20.563Z,9.72
2017-11-23T20:43:48.037Z,9.70
2017-11-23T20:46:15.407Z,9.65
2017-11-23T20:48:42.796Z,9.65
2017-11-23T20:51:10.183Z,9.56
2017-11-23T20:53:37.568Z,9.61
2017-11-23T20:56:04.984Z,9.66
2017-11-23T20:58:32.448Z,9.66
2017-11-23T21:00:59.936Z,9.62
2017-11-23T21:03:27.352Z,9.60
2017-11-23T21:05:54.731Z,9.57
2017-11-23T21:08:22.124Z,9.45
2017-11-23T21:10:49.547Z,9.38
2017-11-23T21:13:17.024Z,9.31
2017-11-23T21:15:44.408Z,9.46
2017-11-23T21:18:11.806Z,9.36
2017-11-23T21:20:39.206Z,9.38
2017-11-23T21:23:06.592Z,9.31
2017-11-23T21:25:34.004Z,9.11
2017-11-23T21:28:01.380Z,9.15
2017-11-23T21:30:28.812Z,9.18
2017-11-23T21:32:56.191Z,9.10
2017-11-23T21:35:23.616Z,8.93
2017-11-23T21:37:51.007Z,8.94
2017-11-23T21:40:18.430Z,9.06
2017-11-23T21:42:45.820Z,9.08
2017-11-23T21:45:13.207Z,8.98
2017-11-23T21:47:40.596Z,9.00
2017-11-23T21:50:07.989Z,9.02
2017-11-23T21:52:35.404Z,9.05
2017-11-23T21:55:02.792Z,9.05
2017-11-23T21:57:30.212Z,8.96
2017-11-23T21:59:57.616Z,9.05
2017-11-23T22:02:25.015Z,9.02
2017-11-23T22:04:52.482Z,8.95
2017-11-23T22:07:19.942Z,9.13
2017-11-23T22:09:47.319Z,9.20
2017-11-23T22:12:14.697Z,9.12
2017-11-23T22:14:42.104Z,9.07
2017-11-23T22:17:09.493Z,9.12
2017-11-23T22:19:36.923Z,9.03
2017-11-23T22:22:04.306Z,8.99
2017-11-23T22:24:31.693Z,9.05
2017-11-23T22:26:59.180Z,8.98
2017-11-23T22:29:26.564Z,8.93
2017-11-23T22:31:53.969Z,9.02
2017-11-23T22:34:21.348Z,9.06
2017-11-23T22:36:48.808Z,8.95
2017-11-23T22:39:16.264Z,8.82
2017-11-23T22:41:43.734Z,8.89
2017-11-23T22:44:11.114Z,8.82
2017-11-23T22:46:38.549Z,8.79
2017-11-23T22:49:05.978Z,8.91
2017-11-23T22:51:33.368Z,8.99
2017-11-23T22:54:00.757Z,9.02
2017-11-23T22:56:28.159Z,9.01
2017-11-23T22:58:55.540Z,9.14
2017-11-23T23:01:22.944Z,9.15
2017-11-23T23:03:50.333Z,9.23
2017-11-23T23:06:17.732Z,8.97
2017-11-23T23:08:45.124Z,8.92
2017-11-23T23:11:12.525Z,8.94
2017-11-23T23:13:39.915Z,9.04
2017-11-23T23:16:07.304Z,9.14
2017-11-23T23:18:34.691Z,9.09
2017-11-23T23:21:02.099Z,9.02
2017-11-23T23:23:29.483Z,9.24
2017-11-23T23:25:56.913Z,9.11
2017-11-23T23:28:24.296Z,9.14
2017-11-23T23:30:51.679Z,9.19
2017-11-23T23:33:19.075Z,8.99
2017-11-23T23:35:46.528Z,8.98
2017-11-23T23:38:13.920Z,9.04
2017-11-23T23:40:41.339Z,9.07
2017-11-23T23:43:08.723Z,9.09
2017-11-23T23:45:36.153Z,8.98
2017-11-23T23:48:03.544Z,9.00
2017-11-23T23:50:30.944Z,8.96
2017-11-23T23:52:58.348Z,9.16
2017-11-23T23:55:25.731Z,9.15
2017-11-23T23:57:53.128Z,8.96
